sensor_id;sensor_type;location;lat;lon;timestamp;P1;durP1;ratioP1;P2;durP2;ratioP2
50128;SDS011;36026;45.478;9.224;2024-01-11T00:02:26;15.35;;;9.60;;
50128;SDS011;36026;45.478;9.224;2024-01-11T00:05:27;14.82;;;8.75;;
50128;SDS011;36026;45.478;9.224;2024-01-11T00:08:29;14.68;;;9.00;;
50128;SDS011;36026;45.478;9.224;2024-01-11T00:11:31;13.32;;;8.98;;
50128;SDS011;36026;45.478;9.224;2024-01-11T00:14:34;14.48;;;8.75;;
50128;SDS011;36026;45.478;9.224;2024-01-11T00:17:35;20.42;;;11.07;;
50128;SDS011;36026;45.478;9.224;2024-01-11T00:20:37;21.15;;;11.98;;
50128;SDS011;36026;45.478;9.224;2024-01-11T00:23:39;20.75;;;11.60;;
50128;SDS011;36026;45.478;9.224;2024-01-11T00:26:41;27.65;;;14.15;;
50128;SDS011;36026;45.478;9.224;2024-01-11T00:29:44;20.50;;;11.50;;
50128;SDS011;36026;45.478;9.224;2024-01-11T00:32:46;19.42;;;10.45;;
50128;SDS011;36026;45.478;9.224;2024-01-11T00:35:47;25.38;;;13.57;;
50128;SDS011;36026;45.478;9.224;2024-01-11T00:38:49;18.83;;;10.75;;
50128;SDS011;36026;45.478;9.224;2024-01-11T00:41:51;19.15;;;11.07;;
50128;SDS011;36026;45.478;9.224;2024-01-11T00:44:54;15.40;;;8.90;;
50128;SDS011;36026;45.478;9.224;2024-01-11T00:47:56;14.83;;;8.60;;
50128;SDS011;36026;45.478;9.224;2024-01-11T00:50:57;13.07;;;8.50;;
50128;SDS011;36026;45.478;9.224;2024-01-11T00:53:59;13.20;;;7.93;;
50128;SDS011;36026;45.478;9.224;2024-01-11T00:57:01;12.98;;;7.72;;
50128;SDS011;36026;45.478;9.224;2024-01-11T01:00:04;13.73;;;8.38;;
50128;SDS011;36026;45.478;9.224;2024-01-11T01:03:07;14.50;;;8.80;;
50128;SDS011;36026;45.478;9.224;2024-01-11T01:06:09;12.33;;;7.73;;
50128;SDS011;36026;45.478;9.224;2024-01-11T01:09:11;14.05;;;7.88;;
50128;SDS011;36026;45.478;9.224;2024-01-11T01:12:13;15.40;;;8.23;;
50128;SDS011;36026;45.478;9.224;2024-01-11T01:15:16;13.85;;;8.00;;
50128;SDS011;36026;45.478;9.224;2024-01-11T01:18:18;13.77;;;8.38;;
50128;SDS011;36026;45.478;9.224;2024-01-11T01:21:20;13.48;;;8.00;;
50128;SDS011;36026;45.478;9.224;2024-01-11T01:24:22;15.57;;;8.23;;
50128;SDS011;36026;45.478;9.224;2024-01-11T01:27:24;13.23;;;8.13;;
50128;SDS011;36026;45.478;9.224;2024-01-11T01:30:27;13.13;;;7.57;;
50128;SDS011;36026;45.478;9.224;2024-01-11T01:33:29;13.67;;;8.00;;
50128;SDS011;36026;45.478;9.224;2024-01-11T01:36:30;12.05;;;7.88;;
50128;SDS011;36026;45.478;9.224;2024-01-11T01:39:32;13.63;;;8.05;;
50128;SDS011;36026;45.478;9.224;2024-01-11T01:42:34;12.30;;;7.65;;
50128;SDS011;36026;45.478;9.224;2024-01-11T01:45:37;11.95;;;7.30;;
50128;SDS011;36026;45.478;9.224;2024-01-11T01:48:39;14.30;;;8.10;;
50128;SDS011;36026;45.478;9.224;2024-01-11T01:51:40;14.48;;;8.10;;
50128;SDS011;36026;45.478;9.224;2024-01-11T01:54:42;13.52;;;7.97;;
50128;SDS011;36026;45.478;9.224;2024-01-11T01:57:44;13.43;;;7.85;;
50128;SDS011;36026;45.478;9.224;2024-01-11T02:00:48;13.40;;;7.80;;
50128;SDS011;36026;45.478;9.224;2024-01-11T02:03:50;14.30;;;8.60;;
50128;SDS011;36026;45.478;9.224;2024-01-11T02:06:53;15.30;;;8.43;;
50128;SDS011;36026;45.478;9.224;2024-01-11T02:09:55;14.60;;;8.30;;
50128;SDS011;36026;45.478;9.224;2024-01-11T02:12:57;14.50;;;8.50;;
50128;SDS011;36026;45.478;9.224;2024-01-11T02:16:01;15.30;;;9.43;;
50128;SDS011;36026;45.478;9.224;2024-01-11T02:19:03;15.45;;;9.35;;
50128;SDS011;36026;45.478;9.224;2024-01-11T02:22:08;15.25;;;9.75;;
50128;SDS011;36026;45.478;9.224;2024-01-11T02:25:14;16.88;;;9.35;;
50128;SDS011;36026;45.478;9.224;2024-01-11T02:28:17;15.85;;;9.90;;
50128;SDS011;36026;45.478;9.224;2024-01-11T02:31:19;15.35;;;9.77;;
50128;SDS011;36026;45.478;9.224;2024-01-11T02:34:21;15.93;;;9.70;;
50128;SDS011;36026;45.478;9.224;2024-01-11T02:37:23;16.17;;;10.05;;
50128;SDS011;36026;45.478;9.224;2024-01-11T02:40:27;18.60;;;10.60;;
50128;SDS011;36026;45.478;9.224;2024-01-11T02:43:29;15.80;;;10.23;;
50128;SDS011;36026;45.478;9.224;2024-01-11T02:46:31;18.48;;;10.65;;
50128;SDS011;36026;45.478;9.224;2024-01-11T02:49:33;16.33;;;10.18;;
50128;SDS011;36026;45.478;9.224;2024-01-11T02:52:34;18.45;;;11.00;;
50128;SDS011;36026;45.478;9.224;2024-01-11T02:55:38;18.63;;;10.35;;
50128;SDS011;36026;45.478;9.224;2024-01-11T02:58:39;17.75;;;10.20;;
50128;SDS011;36026;45.478;9.224;2024-01-11T03:01:41;17.77;;;10.48;;
50128;SDS011;36026;45.478;9.224;2024-01-11T03:04:43;18.35;;;10.60;;
50128;SDS011;36026;45.478;9.224;2024-01-11T03:07:45;18.48;;;11.35;;
50128;SDS011;36026;45.478;9.224;2024-01-11T03:10:48;17.03;;;10.77;;
50128;SDS011;36026;45.478;9.224;2024-01-11T03:13:50;16.95;;;11.02;;
50128;SDS011;36026;45.478;9.224;2024-01-11T03:16:51;19.48;;;11.10;;
50128;SDS011;36026;45.478;9.224;2024-01-11T03:19:53;18.92;;;11.00;;
50128;SDS011;36026;45.478;9.224;2024-01-11T03:22:55;18.33;;;11.13;;
50128;SDS011;36026;45.478;9.224;2024-01-11T03:25:58;17.45;;;10.85;;
50128;SDS011;36026;45.478;9.224;2024-01-11T03:29:01;19.60;;;11.45;;
50128;SDS011;36026;45.478;9.224;2024-01-11T03:32:02;17.75;;;11.00;;
50128;SDS011;36026;45.478;9.224;2024-01-11T03:35:05;18.77;;;11.00;;
50128;SDS011;36026;45.478;9.224;2024-01-11T03:38:08;17.35;;;10.48;;
50128;SDS011;36026;45.478;9.224;2024-01-11T03:41:11;17.20;;;10.75;;
50128;SDS011;36026;45.478;9.224;2024-01-11T03:44:13;18.02;;;10.27;;
50128;SDS011;36026;45.478;9.224;2024-01-11T03:47:14;18.00;;;10.38;;
50128;SDS011;36026;45.478;9.224;2024-01-11T03:50:16;15.85;;;10.23;;
50128;SDS011;36026;45.478;9.224;2024-01-11T03:53:19;17.08;;;10.55;;
50128;SDS011;36026;45.478;9.224;2024-01-11T03:56:23;17.83;;;10.60;;
50128;SDS011;36026;45.478;9.224;2024-01-11T03:59:24;17.65;;;10.82;;
50128;SDS011;36026;45.478;9.224;2024-01-11T04:02:26;17.15;;;10.25;;
50128;SDS011;36026;45.478;9.224;2024-01-11T04:05:28;18.50;;;11.18;;
50128;SDS011;36026;45.478;9.224;2024-01-11T04:08:30;18.13;;;10.73;;
50128;SDS011;36026;45.478;9.224;2024-01-11T04:11:33;17.63;;;10.52;;
50128;SDS011;36026;45.478;9.224;2024-01-11T04:14:37;19.13;;;10.80;;
50128;SDS011;36026;45.478;9.224;2024-01-11T04:17:39;16.98;;;10.95;;
50128;SDS011;36026;45.478;9.224;2024-01-11T04:20:41;17.77;;;10.60;;
50128;SDS011;36026;45.478;9.224;2024-01-11T04:23:43;17.55;;;11.43;;
50128;SDS011;36026;45.478;9.224;2024-01-11T04:26:46;17.60;;;11.13;;
50128;SDS011;36026;45.478;9.224;2024-01-11T04:29:48;16.30;;;10.35;;
50128;SDS011;36026;45.478;9.224;2024-01-11T04:32:49;17.65;;;11.10;;
50128;SDS011;36026;45.478;9.224;2024-01-11T04:35:51;18.27;;;10.93;;
50128;SDS011;36026;45.478;9.224;2024-01-11T04:38:53;17.93;;;10.93;;
50128;SDS011;36026;45.478;9.224;2024-01-11T04:41:56;18.00;;;11.32;;
50128;SDS011;36026;45.478;9.224;2024-01-11T04:44:58;19.00;;;11.18;;
50128;SDS011;36026;45.478;9.224;2024-01-11T04:48:00;17.60;;;11.10;;
50128;SDS011;36026;45.478;9.224;2024-01-11T04:51:01;19.15;;;12.55;;
50128;SDS011;36026;45.478;9.224;2024-01-11T04:54:03;18.63;;;11.18;;
50128;SDS011;36026;45.478;9.224;2024-01-11T04:57:07;19.93;;;11.97;;
50128;SDS011;36026;45.478;9.224;2024-01-11T05:00:09;19.92;;;12.18;;
50128;SDS011;36026;45.478;9.224;2024-01-11T05:03:11;18.55;;;11.60;;
50128;SDS011;36026;45.478;9.224;2024-01-11T05:06:16;19.13;;;11.45;;
50128;SDS011;36026;45.478;9.224;2024-01-11T05:09:18;20.52;;;11.52;;
50128;SDS011;36026;45.478;9.224;2024-01-11T05:12:21;18.10;;;11.32;;
50128;SDS011;36026;45.478;9.224;2024-01-11T05:15:23;19.65;;;11.32;;
50128;SDS011;36026;45.478;9.224;2024-01-11T05:18:24;18.48;;;11.35;;
50128;SDS011;36026;45.478;9.224;2024-01-11T05:21:26;18.65;;;12.00;;
50128;SDS011;36026;45.478;9.224;2024-01-11T05:24:28;19.75;;;12.05;;
50128;SDS011;36026;45.478;9.224;2024-01-11T05:27:31;19.20;;;11.60;;
50128;SDS011;36026;45.478;9.224;2024-01-11T05:30:33;20.77;;;12.57;;
50128;SDS011;36026;45.478;9.224;2024-01-11T05:33:34;19.07;;;12.03;;
50128;SDS011;36026;45.478;9.224;2024-01-11T05:36:36;19.30;;;11.63;;
50128;SDS011;36026;45.478;9.224;2024-01-11T05:39:38;19.92;;;12.00;;
50128;SDS011;36026;45.478;9.224;2024-01-11T05:42:41;20.52;;;12.32;;
50128;SDS011;36026;45.478;9.224;2024-01-11T05:45:43;21.58;;;12.45;;
50128;SDS011;36026;45.478;9.224;2024-01-11T05:48:44;21.17;;;13.00;;
50128;SDS011;36026;45.478;9.224;2024-01-11T05:51:46;22.02;;;13.05;;
50128;SDS011;36026;45.478;9.224;2024-01-11T05:54:48;19.60;;;12.00;;
50128;SDS011;36026;45.478;9.224;2024-01-11T05:57:51;19.98;;;12.40;;
50128;SDS011;36026;45.478;9.224;2024-01-11T06:00:52;20.05;;;12.13;;
50128;SDS011;36026;45.478;9.224;2024-01-11T06:03:55;19.70;;;12.25;;
50128;SDS011;36026;45.478;9.224;2024-01-11T06:06:57;20.52;;;12.20;;
50128;SDS011;36026;45.478;9.224;2024-01-11T06:09:59;18.50;;;11.98;;
50128;SDS011;36026;45.478;9.224;2024-01-11T06:13:04;18.65;;;11.77;;
50128;SDS011;36026;45.478;9.224;2024-01-11T06:16:06;18.33;;;11.27;;
50128;SDS011;36026;45.478;9.224;2024-01-11T06:19:08;18.15;;;12.30;;
50128;SDS011;36026;45.478;9.224;2024-01-11T06:22:10;20.00;;;12.30;;
50128;SDS011;36026;45.478;9.224;2024-01-11T06:25:11;21.23;;;12.90;;
50128;SDS011;36026;45.478;9.224;2024-01-11T06:28:15;21.15;;;12.77;;
50128;SDS011;36026;45.478;9.224;2024-01-11T06:31:16;20.92;;;12.40;;
50128;SDS011;36026;45.478;9.224;2024-01-11T06:34:18;21.80;;;12.75;;
50128;SDS011;36026;45.478;9.224;2024-01-11T06:37:20;20.13;;;12.70;;
50128;SDS011;36026;45.478;9.224;2024-01-11T06:40:22;22.73;;;12.75;;
50128;SDS011;36026;45.478;9.224;2024-01-11T06:43:26;21.73;;;13.10;;
50128;SDS011;36026;45.478;9.224;2024-01-11T06:46:28;22.02;;;12.38;;
50128;SDS011;36026;45.478;9.224;2024-01-11T06:49:30;18.92;;;11.85;;
50128;SDS011;36026;45.478;9.224;2024-01-11T06:52:32;19.43;;;12.03;;
50128;SDS011;36026;45.478;9.224;2024-01-11T06:55:33;20.63;;;12.88;;
50128;SDS011;36026;45.478;9.224;2024-01-11T06:58:38;22.02;;;13.27;;
50128;SDS011;36026;45.478;9.224;2024-01-11T07:01:39;22.10;;;12.98;;
50128;SDS011;36026;45.478;9.224;2024-01-11T07:04:43;22.13;;;12.93;;
50128;SDS011;36026;45.478;9.224;2024-01-11T07:07:45;20.25;;;12.95;;
50128;SDS011;36026;45.478;9.224;2024-01-11T07:10:47;20.65;;;12.82;;
50128;SDS011;36026;45.478;9.224;2024-01-11T07:13:50;20.02;;;12.35;;
50128;SDS011;36026;45.478;9.224;2024-01-11T07:16:52;20.35;;;12.35;;
50128;SDS011;36026;45.478;9.224;2024-01-11T07:19:54;21.40;;;11.93;;
50128;SDS011;36026;45.478;9.224;2024-01-11T07:22:56;18.58;;;11.70;;
50128;SDS011;36026;45.478;9.224;2024-01-11T07:25:57;19.40;;;12.27;;
50128;SDS011;36026;45.478;9.224;2024-01-11T07:29:01;21.60;;;12.05;;
50128;SDS011;36026;45.478;9.224;2024-01-11T07:32:03;19.67;;;12.07;;
50128;SDS011;36026;45.478;9.224;2024-01-11T07:35:05;23.02;;;12.80;;
50128;SDS011;36026;45.478;9.224;2024-01-11T07:38:08;20.97;;;12.13;;
50128;SDS011;36026;45.478;9.224;2024-01-11T07:41:09;20.13;;;12.43;;
50128;SDS011;36026;45.478;9.224;2024-01-11T07:44:13;20.20;;;12.70;;
50128;SDS011;36026;45.478;9.224;2024-01-11T07:47:14;23.00;;;13.10;;
50128;SDS011;36026;45.478;9.224;2024-01-11T07:50:17;19.75;;;12.55;;
50128;SDS011;36026;45.478;9.224;2024-01-11T07:53:19;20.33;;;12.20;;
50128;SDS011;36026;45.478;9.224;2024-01-11T07:56:21;20.70;;;12.77;;
50128;SDS011;36026;45.478;9.224;2024-01-11T07:59:24;20.87;;;12.20;;
50128;SDS011;36026;45.478;9.224;2024-01-11T08:02:26;20.33;;;13.00;;
50128;SDS011;36026;45.478;9.224;2024-01-11T08:05:28;19.48;;;12.55;;
50128;SDS011;36026;45.478;9.224;2024-01-11T08:08:30;20.60;;;11.97;;
50128;SDS011;36026;45.478;9.224;2024-01-11T08:11:32;20.75;;;13.18;;
50128;SDS011;36026;45.478;9.224;2024-01-11T08:14:35;21.25;;;12.73;;
50128;SDS011;36026;45.478;9.224;2024-01-11T08:17:37;20.27;;;12.05;;
50128;SDS011;36026;45.478;9.224;2024-01-11T08:20:39;19.23;;;12.33;;
50128;SDS011;36026;45.478;9.224;2024-01-11T08:23:41;20.80;;;12.38;;
50128;SDS011;36026;45.478;9.224;2024-01-11T08:26:44;20.80;;;13.33;;
50128;SDS011;36026;45.478;9.224;2024-01-11T08:29:47;21.08;;;13.05;;
50128;SDS011;36026;45.478;9.224;2024-01-11T08:32:49;20.23;;;12.65;;
50128;SDS011;36026;45.478;9.224;2024-01-11T08:35:51;19.92;;;13.48;;
50128;SDS011;36026;45.478;9.224;2024-01-11T08:38:53;21.65;;;13.18;;
50128;SDS011;36026;45.478;9.224;2024-01-11T08:41:54;18.88;;;12.88;;
50128;SDS011;36026;45.478;9.224;2024-01-11T08:44:58;21.38;;;13.30;;
50128;SDS011;36026;45.478;9.224;2024-01-11T08:48:04;22.98;;;14.18;;
50128;SDS011;36026;45.478;9.224;2024-01-11T08:51:06;20.70;;;13.65;;
50128;SDS011;36026;45.478;9.224;2024-01-11T08:54:07;20.95;;;12.90;;
50128;SDS011;36026;45.478;9.224;2024-01-11T08:57:11;18.50;;;12.27;;
50128;SDS011;36026;45.478;9.224;2024-01-11T09:00:15;20.33;;;12.90;;
50128;SDS011;36026;45.478;9.224;2024-01-11T09:03:17;19.75;;;12.70;;
50128;SDS011;36026;45.478;9.224;2024-01-11T09:06:19;20.35;;;12.48;;
50128;SDS011;36026;45.478;9.224;2024-01-11T09:09:21;19.47;;;12.47;;
50128;SDS011;36026;45.478;9.224;2024-01-11T09:12:23;22.10;;;13.05;;
50128;SDS011;36026;45.478;9.224;2024-01-11T09:15:26;20.17;;;12.88;;
50128;SDS011;36026;45.478;9.224;2024-01-11T09:18:27;19.37;;;12.53;;
50128;SDS011;36026;45.478;9.224;2024-01-11T09:21:30;20.45;;;13.57;;
50128;SDS011;36026;45.478;9.224;2024-01-11T09:24:32;21.63;;;13.52;;
50128;SDS011;36026;45.478;9.224;2024-01-11T09:27:34;18.73;;;12.80;;
50128;SDS011;36026;45.478;9.224;2024-01-11T09:30:37;19.93;;;13.70;;
50128;SDS011;36026;45.478;9.224;2024-01-11T09:33:39;20.33;;;13.73;;
50128;SDS011;36026;45.478;9.224;2024-01-11T09:36:42;20.83;;;13.25;;
50128;SDS011;36026;45.478;9.224;2024-01-11T09:39:45;19.50;;;13.17;;
50128;SDS011;36026;45.478;9.224;2024-01-11T09:42:47;20.20;;;13.35;;
50128;SDS011;36026;45.478;9.224;2024-01-11T09:45:50;20.13;;;13.55;;
50128;SDS011;36026;45.478;9.224;2024-01-11T09:48:53;22.23;;;13.80;;
50128;SDS011;36026;45.478;9.224;2024-01-11T09:51:55;19.15;;;13.70;;
50128;SDS011;36026;45.478;9.224;2024-01-11T09:54:57;19.13;;;13.73;;
50128;SDS011;36026;45.478;9.224;2024-01-11T09:57:59;20.17;;;13.95;;
50128;SDS011;36026;45.478;9.224;2024-01-11T10:01:02;20.52;;;14.18;;
50128;SDS011;36026;45.478;9.224;2024-01-11T10:04:09;21.92;;;15.18;;
50128;SDS011;36026;45.478;9.224;2024-01-11T10:07:11;20.27;;;14.43;;
50128;SDS011;36026;45.478;9.224;2024-01-11T10:10:15;22.13;;;14.90;;
50128;SDS011;36026;45.478;9.224;2024-01-11T10:13:17;22.13;;;14.90;;
50128;SDS011;36026;45.478;9.224;2024-01-11T10:16:20;21.33;;;15.00;;
50128;SDS011;36026;45.478;9.224;2024-01-11T10:19:22;19.10;;;14.18;;
50128;SDS011;36026;45.478;9.224;2024-01-11T10:22:24;21.63;;;14.57;;
50128;SDS011;36026;45.478;9.224;2024-01-11T10:25:26;22.77;;;15.38;;
50128;SDS011;36026;45.478;9.224;2024-01-11T10:28:28;21.98;;;15.23;;
50128;SDS011;36026;45.478;9.224;2024-01-11T10:31:32;22.90;;;15.33;;
50128;SDS011;36026;45.478;9.224;2024-01-11T10:34:35;22.27;;;15.13;;
50128;SDS011;36026;45.478;9.224;2024-01-11T10:37:40;21.33;;;14.82;;
50128;SDS011;36026;45.478;9.224;2024-01-11T10:40:42;21.38;;;14.85;;
50128;SDS011;36026;45.478;9.224;2024-01-11T10:43:44;21.70;;;15.38;;
50128;SDS011;36026;45.478;9.224;2024-01-11T10:46:49;20.42;;;14.70;;
50128;SDS011;36026;45.478;9.224;2024-01-11T10:49:51;18.48;;;14.13;;
50128;SDS011;36026;45.478;9.224;2024-01-11T10:52:56;20.10;;;14.18;;
50128;SDS011;36026;45.478;9.224;2024-01-11T10:56:14;20.25;;;14.60;;
50128;SDS011;36026;45.478;9.224;2024-01-11T10:59:17;19.15;;;13.23;;
50128;SDS011;36026;45.478;9.224;2024-01-11T11:02:21;19.10;;;14.13;;
50128;SDS011;36026;45.478;9.224;2024-01-11T11:05:23;19.77;;;14.50;;
50128;SDS011;36026;45.478;9.224;2024-01-11T11:08:26;21.10;;;14.38;;
50128;SDS011;36026;45.478;9.224;2024-01-11T11:11:28;21.15;;;14.80;;
50128;SDS011;36026;45.478;9.224;2024-01-11T11:14:31;21.30;;;15.77;;
50128;SDS011;36026;45.478;9.224;2024-01-11T11:17:37;20.27;;;14.82;;
50128;SDS011;36026;45.478;9.224;2024-01-11T11:20:39;21.08;;;15.23;;
50128;SDS011;36026;45.478;9.224;2024-01-11T11:23:42;21.90;;;15.02;;
50128;SDS011;36026;45.478;9.224;2024-01-11T11:26:45;19.42;;;14.60;;
50128;SDS011;36026;45.478;9.224;2024-01-11T11:29:47;22.67;;;16.33;;
50128;SDS011;36026;45.478;9.224;2024-01-11T11:32:51;22.88;;;15.70;;
50128;SDS011;36026;45.478;9.224;2024-01-11T11:35:53;21.08;;;15.40;;
50128;SDS011;36026;45.478;9.224;2024-01-11T11:38:56;19.63;;;14.30;;
50128;SDS011;36026;45.478;9.224;2024-01-11T11:42:00;19.33;;;13.73;;
50128;SDS011;36026;45.478;9.224;2024-01-11T11:45:03;19.45;;;14.07;;
50128;SDS011;36026;45.478;9.224;2024-01-11T11:51:42;18.47;;;14.20;;
50128;SDS011;36026;45.478;9.224;2024-01-11T11:54:44;19.83;;;13.70;;
50128;SDS011;36026;45.478;9.224;2024-01-11T11:57:46;18.95;;;14.25;;
50128;SDS011;36026;45.478;9.224;2024-01-11T12:00:49;18.80;;;14.50;;
50128;SDS011;36026;45.478;9.224;2024-01-11T12:03:50;19.98;;;14.30;;
50128;SDS011;36026;45.478;9.224;2024-01-11T12:06:55;20.60;;;15.65;;
50128;SDS011;36026;45.478;9.224;2024-01-11T12:09:56;19.88;;;14.95;;
50128;SDS011;36026;45.478;9.224;2024-01-11T12:12:58;18.98;;;14.27;;
50128;SDS011;36026;45.478;9.224;2024-01-11T12:16:00;18.77;;;14.13;;
50128;SDS011;36026;45.478;9.224;2024-01-11T12:19:03;18.73;;;14.10;;
50128;SDS011;36026;45.478;9.224;2024-01-11T12:22:07;19.17;;;14.40;;
50128;SDS011;36026;45.478;9.224;2024-01-11T12:25:09;19.38;;;13.88;;
50128;SDS011;36026;45.478;9.224;2024-01-11T12:28:12;16.38;;;12.75;;
50128;SDS011;36026;45.478;9.224;2024-01-11T12:31:14;21.35;;;15.75;;
50128;SDS011;36026;45.478;9.224;2024-01-11T12:34:19;20.65;;;13.63;;
50128;SDS011;36026;45.478;9.224;2024-01-11T12:37:22;17.75;;;13.20;;
50128;SDS011;36026;45.478;9.224;2024-01-11T12:40:24;15.33;;;12.57;;
50128;SDS011;36026;45.478;9.224;2024-01-11T12:43:27;19.02;;;13.63;;
50128;SDS011;36026;45.478;9.224;2024-01-11T12:46:29;17.55;;;13.60;;
50128;SDS011;36026;45.478;9.224;2024-01-11T12:49:30;18.13;;;14.23;;
50128;SDS011;36026;45.478;9.224;2024-01-11T12:52:34;20.70;;;14.70;;
50128;SDS011;36026;45.478;9.224;2024-01-11T12:55:35;17.98;;;13.88;;
50128;SDS011;36026;45.478;9.224;2024-01-11T12:58:38;17.92;;;13.68;;
50128;SDS011;36026;45.478;9.224;2024-01-11T13:01:39;16.88;;;13.70;;
50128;SDS011;36026;45.478;9.224;2024-01-11T13:04:42;19.17;;;14.18;;
50128;SDS011;36026;45.478;9.224;2024-01-11T13:07:45;18.42;;;13.55;;
50128;SDS011;36026;45.478;9.224;2024-01-11T13:10:47;17.33;;;12.52;;
50128;SDS011;36026;45.478;9.224;2024-01-11T13:13:49;18.13;;;13.20;;
50128;SDS011;36026;45.478;9.224;2024-01-11T13:16:50;17.35;;;12.43;;
50128;SDS011;36026;45.478;9.224;2024-01-11T13:19:52;16.95;;;12.35;;
50128;SDS011;36026;45.478;9.224;2024-01-11T13:26:16;17.67;;;12.93;;
50128;SDS011;36026;45.478;9.224;2024-01-11T13:29:18;18.05;;;12.60;;
50128;SDS011;36026;45.478;9.224;2024-01-11T13:32:20;18.33;;;12.68;;
50128;SDS011;36026;45.478;9.224;2024-01-11T13:35:22;19.10;;;12.98;;
50128;SDS011;36026;45.478;9.224;2024-01-11T13:38:25;17.15;;;12.60;;
50128;SDS011;36026;45.478;9.224;2024-01-11T13:41:27;16.73;;;12.73;;
50128;SDS011;36026;45.478;9.224;2024-01-11T13:44:29;19.92;;;12.73;;
50128;SDS011;36026;45.478;9.224;2024-01-11T13:47:30;17.85;;;13.65;;
50128;SDS011;36026;45.478;9.224;2024-01-11T13:50:32;15.55;;;12.13;;
50128;SDS011;36026;45.478;9.224;2024-01-11T13:53:35;17.10;;;12.77;;
50128;SDS011;36026;45.478;9.224;2024-01-11T13:56:37;17.00;;;12.60;;
50128;SDS011;36026;45.478;9.224;2024-01-11T13:59:39;15.82;;;12.15;;
50128;SDS011;36026;45.478;9.224;2024-01-11T14:02:41;16.35;;;12.52;;
50128;SDS011;36026;45.478;9.224;2024-01-11T14:05:43;17.13;;;12.60;;
50128;SDS011;36026;45.478;9.224;2024-01-11T14:08:46;17.37;;;12.70;;
50128;SDS011;36026;45.478;9.224;2024-01-11T14:11:48;19.05;;;13.35;;
50128;SDS011;36026;45.478;9.224;2024-01-11T14:14:49;16.75;;;12.73;;
50128;SDS011;36026;45.478;9.224;2024-01-11T14:17:51;19.33;;;13.68;;
50128;SDS011;36026;45.478;9.224;2024-01-11T14:20:53;19.87;;;13.93;;
50128;SDS011;36026;45.478;9.224;2024-01-11T14:23:56;20.02;;;13.90;;
50128;SDS011;36026;45.478;9.224;2024-01-11T14:26:58;19.70;;;14.18;;
50128;SDS011;36026;45.478;9.224;2024-01-11T14:30:00;18.35;;;13.65;;
50128;SDS011;36026;45.478;9.224;2024-01-11T14:33:05;19.07;;;13.73;;
50128;SDS011;36026;45.478;9.224;2024-01-11T14:36:07;18.92;;;13.52;;
50128;SDS011;36026;45.478;9.224;2024-01-11T14:39:10;22.73;;;14.40;;
50128;SDS011;36026;45.478;9.224;2024-01-11T14:42:12;36.13;;;23.83;;
50128;SDS011;36026;45.478;9.224;2024-01-11T14:45:14;32.83;;;21.77;;
50128;SDS011;36026;45.478;9.224;2024-01-11T14:48:15;20.80;;;15.02;;
50128;SDS011;36026;45.478;9.224;2024-01-11T14:51:17;19.02;;;13.80;;
50128;SDS011;36026;45.478;9.224;2024-01-11T14:54:20;20.88;;;13.90;;
50128;SDS011;36026;45.478;9.224;2024-01-11T14:57:22;19.13;;;13.20;;
50128;SDS011;36026;45.478;9.224;2024-01-11T15:00:24;19.77;;;13.70;;
50128;SDS011;36026;45.478;9.224;2024-01-11T15:03:26;22.40;;;14.88;;
50128;SDS011;36026;45.478;9.224;2024-01-11T15:06:27;20.83;;;14.73;;
50128;SDS011;36026;45.478;9.224;2024-01-11T15:09:30;21.10;;;14.20;;
50128;SDS011;36026;45.478;9.224;2024-01-11T15:12:32;20.20;;;14.20;;
50128;SDS011;36026;45.478;9.224;2024-01-11T15:15:34;20.33;;;14.23;;
50128;SDS011;36026;45.478;9.224;2024-01-11T15:18:36;21.27;;;14.63;;
50128;SDS011;36026;45.478;9.224;2024-01-11T15:21:38;20.63;;;14.15;;
50128;SDS011;36026;45.478;9.224;2024-01-11T15:24:41;20.60;;;13.27;;
50128;SDS011;36026;45.478;9.224;2024-01-11T15:27:43;21.00;;;14.10;;
50128;SDS011;36026;45.478;9.224;2024-01-11T15:30:45;20.73;;;13.52;;
50128;SDS011;36026;45.478;9.224;2024-01-11T15:33:47;19.42;;;13.52;;
50128;SDS011;36026;45.478;9.224;2024-01-11T15:36:49;19.85;;;13.75;;
50128;SDS011;36026;45.478;9.224;2024-01-11T15:39:52;19.27;;;13.02;;
50128;SDS011;36026;45.478;9.224;2024-01-11T15:42:54;19.70;;;13.80;;
50128;SDS011;36026;45.478;9.224;2024-01-11T15:45:56;19.17;;;13.63;;
50128;SDS011;36026;45.478;9.224;2024-01-11T15:48:58;22.43;;;14.50;;
50128;SDS011;36026;45.478;9.224;2024-01-11T15:52:00;22.02;;;14.50;;
50128;SDS011;36026;45.478;9.224;2024-01-11T15:55:04;21.98;;;14.30;;
50128;SDS011;36026;45.478;9.224;2024-01-11T15:58:09;20.10;;;13.63;;
50128;SDS011;36026;45.478;9.224;2024-01-11T16:01:10;22.52;;;14.10;;
50128;SDS011;36026;45.478;9.224;2024-01-11T16:04:12;22.25;;;15.10;;
50128;SDS011;36026;45.478;9.224;2024-01-11T16:07:14;22.17;;;15.05;;
50128;SDS011;36026;45.478;9.224;2024-01-11T16:10:18;22.67;;;15.15;;
50128;SDS011;36026;45.478;9.224;2024-01-11T16:13:20;93.45;;;46.70;;
50128;SDS011;36026;45.478;9.224;2024-01-11T16:16:22;87.50;;;43.20;;
50128;SDS011;36026;45.478;9.224;2024-01-11T16:19:23;49.22;;;27.13;;
50128;SDS011;36026;45.478;9.224;2024-01-11T16:22:25;26.00;;;16.23;;
50128;SDS011;36026;45.478;9.224;2024-01-11T16:25:28;26.52;;;16.55;;
50128;SDS011;36026;45.478;9.224;2024-01-11T16:28:30;23.80;;;15.40;;
50128;SDS011;36026;45.478;9.224;2024-01-11T16:31:32;22.50;;;14.35;;
50128;SDS011;36026;45.478;9.224;2024-01-11T16:34:35;23.25;;;15.55;;
50128;SDS011;36026;45.478;9.224;2024-01-11T16:37:37;22.92;;;14.57;;
50128;SDS011;36026;45.478;9.224;2024-01-11T16:40:40;23.00;;;14.82;;
50128;SDS011;36026;45.478;9.224;2024-01-11T16:43:43;24.55;;;15.20;;
50128;SDS011;36026;45.478;9.224;2024-01-11T16:46:45;25.90;;;15.57;;
50128;SDS011;36026;45.478;9.224;2024-01-11T16:49:47;23.27;;;15.05;;
50128;SDS011;36026;45.478;9.224;2024-01-11T16:52:48;23.52;;;15.65;;
50128;SDS011;36026;45.478;9.224;2024-01-11T16:55:52;22.30;;;15.00;;
50128;SDS011;36026;45.478;9.224;2024-01-11T16:58:53;25.42;;;15.63;;
50128;SDS011;36026;45.478;9.224;2024-01-11T17:01:55;22.50;;;15.30;;
50128;SDS011;36026;45.478;9.224;2024-01-11T17:04:57;23.97;;;15.37;;
50128;SDS011;36026;45.478;9.224;2024-01-11T17:07:59;23.90;;;14.90;;
50128;SDS011;36026;45.478;9.224;2024-01-11T17:11:02;22.73;;;14.85;;
50128;SDS011;36026;45.478;9.224;2024-01-11T17:14:04;24.40;;;15.37;;
50128;SDS011;36026;45.478;9.224;2024-01-11T17:17:05;23.10;;;14.80;;
50128;SDS011;36026;45.478;9.224;2024-01-11T17:20:09;24.00;;;15.02;;
50128;SDS011;36026;45.478;9.224;2024-01-11T17:23:13;24.15;;;15.15;;
50128;SDS011;36026;45.478;9.224;2024-01-11T17:26:16;23.87;;;14.10;;
50128;SDS011;36026;45.478;9.224;2024-01-11T17:29:18;22.20;;;13.75;;
50128;SDS011;36026;45.478;9.224;2024-01-11T17:32:20;24.05;;;14.77;;
50128;SDS011;36026;45.478;9.224;2024-01-11T17:35:22;22.65;;;14.05;;
50128;SDS011;36026;45.478;9.224;2024-01-11T17:38:24;22.27;;;14.45;;
50128;SDS011;36026;45.478;9.224;2024-01-11T17:41:27;23.48;;;14.73;;
50128;SDS011;36026;45.478;9.224;2024-01-11T17:44:29;24.23;;;15.10;;
50128;SDS011;36026;45.478;9.224;2024-01-11T17:47:30;22.25;;;14.27;;
50128;SDS011;36026;45.478;9.224;2024-01-11T17:50:33;24.67;;;15.05;;
50128;SDS011;36026;45.478;9.224;2024-01-11T17:53:35;23.80;;;14.73;;
50128;SDS011;36026;45.478;9.224;2024-01-11T17:56:39;25.17;;;15.57;;